sensor_id;sensor_type;location;lat;lon;timestamp;pressure;altitude;pressure_sealevel;temperature;humidity
70338;BME280;57757;53.198;19.646;2022-11-15T00:01:16;100498.56;;;6.81;73.21
70338;BME280;57757;53.198;19.646;2022-11-15T00:03:45;100502.89;;;6.78;73.22
70338;BME280;57757;53.198;19.646;2022-11-15T00:06:13;100494.44;;;6.73;73.05
70338;BME280;57757;53.198;19.646;2022-11-15T00:08:41;100493.23;;;6.68;73.11
70338;BME280;57757;53.198;19.646;2022-11-15T00:11:10;100484.27;;;6.65;73.16
70338;BME280;57757;53.198;19.646;2022-11-15T00:13:39;100485.48;;;6.62;73.27
70338;BME280;57757;53.198;19.646;2022-11-15T00:16:09;100483.75;;;6.61;73.33
70338;BME280;57757;53.198;19.646;2022-11-15T00:18:38;100481.52;;;6.62;73.42
70338;BME280;57757;53.198;19.646;2022-11-15T00:21:11;100480.63;;;6.63;73.31
70338;BME280;57757;53.198;19.646;2022-11-15T00:23:40;100477.53;;;6.61;73.36
70338;BME280;57757;53.198;19.646;2022-11-15T00:26:12;100472.34;;;6.61;73.52
70338;BME280;57757;53.198;19.646;2022-11-15T00:28:41;100465.77;;;6.61;73.52
70338;BME280;57757;53.198;19.646;2022-11-15T00:31:12;100462.85;;;6.58;73.42
70338;BME280;57757;53.198;19.646;2022-11-15T00:33:43;100459.75;;;6.55;73.23
70338;BME280;57757;53.198;19.646;2022-11-15T00:36:11;100456.13;;;6.52;73.26
70338;BME280;57757;53.198;19.646;2022-11-15T00:38:39;100453.52;;;6.52;73.55
70338;BME280;57757;53.198;19.646;2022-11-15T00:41:08;100449.22;;;6.54;73.63
70338;BME280;57757;53.198;19.646;2022-11-15T00:43:37;100448.18;;;6.52;73.55
70338;BME280;57757;53.198;19.646;2022-11-15T00:46:07;100445.60;;;6.49;73.61
70338;BME280;57757;53.198;19.646;2022-11-15T00:48:37;100444.40;;;6.50;73.65
70338;BME280;57757;53.198;19.646;2022-11-15T00:51:04;100446.29;;;6.51;73.52
70338;BME280;57757;53.198;19.646;2022-11-15T00:53:32;100445.23;;;6.52;73.52
70338;BME280;57757;53.198;19.646;2022-11-15T00:56:01;100440.75;;;6.55;73.67
70338;BME280;57757;53.198;19.646;2022-11-15T00:58:28;100439.20;;;6.55;73.66
70338;BME280;57757;53.198;19.646;2022-11-15T01:00:56;100438.52;;;6.54;73.72
70338;BME280;57757;53.198;19.646;2022-11-15T01:03:24;100435.91;;;6.54;73.70
70338;BME280;57757;53.198;19.646;2022-11-15T01:05:51;100431.41;;;6.54;73.80
70338;BME280;57757;53.198;19.646;2022-11-15T01:08:19;100430.55;;;6.54;73.66
70338;BME280;57757;53.198;19.646;2022-11-15T01:10:47;100433.33;;;6.54;73.63
70338;BME280;57757;53.198;19.646;2022-11-15T01:13:15;100432.29;;;6.54;73.51
70338;BME280;57757;53.198;19.646;2022-11-15T01:15:42;100427.98;;;6.47;73.39
70338;BME280;57757;53.198;19.646;2022-11-15T01:18:10;100425.92;;;6.42;73.49
70338;BME280;57757;53.198;19.646;2022-11-15T01:20:42;100420.24;;;6.39;73.72
70338;BME280;57757;53.198;19.646;2022-11-15T01:23:10;100418.85;;;6.40;73.80
70338;BME280;57757;53.198;19.646;2022-11-15T01:25:38;100417.46;;;6.41;73.75
70338;BME280;57757;53.198;19.646;2022-11-15T01:28:06;100415.90;;;6.44;73.73
70338;BME280;57757;53.198;19.646;2022-11-15T01:30:35;100416.23;;;6.45;73.80
70338;BME280;57757;53.198;19.646;2022-11-15T01:33:04;100410.02;;;6.47;73.88
70338;BME280;57757;53.198;19.646;2022-11-15T01:35:32;100412.08;;;6.48;73.84
70338;BME280;57757;53.198;19.646;2022-11-15T01:37:59;100408.11;;;6.49;73.90
70338;BME280;57757;53.198;19.646;2022-11-15T01:40:27;100404.83;;;6.48;73.71
70338;BME280;57757;53.198;19.646;2022-11-15T01:42:55;100399.48;;;6.46;73.62
70338;BME280;57757;53.198;19.646;2022-11-15T01:45:22;100395.33;;;6.47;73.68
70338;BME280;57757;53.198;19.646;2022-11-15T01:47:52;100394.65;;;6.46;73.60
70338;BME280;57757;53.198;19.646;2022-11-15T01:50:31;100395.87;;;6.42;73.63
70338;BME280;57757;53.198;19.646;2022-11-15T01:53:00;100388.97;;;6.38;73.62
70338;BME280;57757;53.198;19.646;2022-11-15T01:55:28;100377.77;;;6.34;73.74
70338;BME280;57757;53.198;19.646;2022-11-15T01:58:00;100374.66;;;6.29;73.66
70338;BME280;57757;53.198;19.646;2022-11-15T02:00:29;100373.98;;;6.29;73.76
70338;BME280;57757;53.198;19.646;2022-11-15T02:02:58;100374.48;;;6.31;73.77
70338;BME280;57757;53.198;19.646;2022-11-15T02:05:26;100370.33;;;6.34;74.14
70338;BME280;57757;53.198;19.646;2022-11-15T02:07:54;100371.36;;;6.33;73.89
70338;BME280;57757;53.198;19.646;2022-11-15T02:10:24;100367.56;;;6.33;74.16
70338;BME280;57757;53.198;19.646;2022-11-15T02:12:52;100364.98;;;6.32;74.10
70338;BME280;57757;53.198;19.646;2022-11-15T02:15:25;100363.60;;;6.30;73.85
70338;BME280;57757;53.198;19.646;2022-11-15T02:21:37;100361.88;;;6.34;74.16
70338;BME280;57757;53.198;19.646;2022-11-15T02:32:50;100334.39;;;6.39;74.04
70338;BME280;57757;53.198;19.646;2022-11-15T02:35:34;100335.42;;;6.40;73.97
70338;BME280;57757;53.198;19.646;2022-11-15T02:38:15;100336.99;;;6.36;73.85
70338;BME280;57757;53.198;19.646;2022-11-15T02:43:22;100333.20;;;6.33;73.99
70338;BME280;57757;53.198;19.646;2022-11-15T02:46:14;100322.70;;;6.27;73.83
70338;BME280;57757;53.198;19.646;2022-11-15T02:48:45;100319.60;;;6.21;73.73
70338;BME280;57757;53.198;19.646;2022-11-15T02:51:13;100317.36;;;6.19;73.84
70338;BME280;57757;53.198;19.646;2022-11-15T02:53:42;100319.60;;;6.21;74.04
70338;BME280;57757;53.198;19.646;2022-11-15T02:56:11;100316.83;;;6.21;74.15
70338;BME280;57757;53.198;19.646;2022-11-15T03:04:16;100306.67;;;6.15;74.14
70338;BME280;57757;53.198;19.646;2022-11-15T03:11:59;100295.41;;;6.27;74.32
70338;BME280;57757;53.198;19.646;2022-11-15T03:14:39;100296.77;;;6.29;74.38
70338;BME280;57757;53.198;19.646;2022-11-15T03:17:32;100298.48;;;6.32;74.38
70338;BME280;57757;53.198;19.646;2022-11-15T03:20:05;100299.69;;;6.35;74.38
70338;BME280;57757;53.198;19.646;2022-11-15T03:22:36;100299.52;;;6.35;74.32
70338;BME280;57757;53.198;19.646;2022-11-15T03:25:08;100295.20;;;6.35;74.23
70338;BME280;57757;53.198;19.646;2022-11-15T03:27:39;100288.81;;;6.32;74.09
70338;BME280;57757;53.198;19.646;2022-11-15T03:30:10;100287.63;;;6.28;74.22
70338;BME280;57757;53.198;19.646;2022-11-15T03:32:50;100282.79;;;6.26;74.11
70338;BME280;57757;53.198;19.646;2022-11-15T03:35:23;100278.83;;;6.25;74.16
70338;BME280;57757;53.198;19.646;2022-11-15T03:37:59;100270.88;;;6.25;74.32
70338;BME280;57757;53.198;19.646;2022-11-15T03:40:49;100264.82;;;6.30;74.34
70338;BME280;57757;53.198;19.646;2022-11-15T03:43:51;100260.50;;;6.31;74.47
70338;BME280;57757;53.198;19.646;2022-11-15T03:46:38;100257.38;;;6.33;74.41
70338;BME280;57757;53.198;19.646;2022-11-15T03:52:06;100250.34;;;6.25;74.28
70338;BME280;57757;53.198;19.646;2022-11-15T03:54:33;100245.69;;;6.23;74.17
70338;BME280;57757;53.198;19.646;2022-11-15T03:57:01;100243.95;;;6.21;74.25
70338;BME280;57757;53.198;19.646;2022-11-15T03:59:29;100245.85;;;6.21;74.43
70338;BME280;57757;53.198;19.646;2022-11-15T04:01:56;100239.83;;;6.20;74.33
70338;BME280;57757;53.198;19.646;2022-11-15T04:04:24;100237.59;;;6.16;74.28
70338;BME280;57757;53.198;19.646;2022-11-15T04:06:52;100231.56;;;6.13;74.19
70338;BME280;57757;53.198;19.646;2022-11-15T04:09:20;100235.73;;;6.10;74.21
70338;BME280;57757;53.198;19.646;2022-11-15T04:11:47;100240.21;;;6.10;74.36
70338;BME280;57757;53.198;19.646;2022-11-15T04:14:15;100242.12;;;6.12;74.39
70338;BME280;57757;53.198;19.646;2022-11-15T04:16:43;100239.00;;;6.12;74.38
70338;BME280;57757;53.198;19.646;2022-11-15T04:19:10;100234.88;;;6.09;74.28
70338;BME280;57757;53.198;19.646;2022-11-15T04:21:54;100238.17;;;6.04;74.29
70338;BME280;57757;53.198;19.646;2022-11-15T04:24:38;100234.55;;;6.02;74.41
70338;BME280;57757;53.198;19.646;2022-11-15T04:27:05;100237.65;;;6.02;74.53
70338;BME280;57757;53.198;19.646;2022-11-15T04:29:33;100237.48;;;6.02;74.36
70338;BME280;57757;53.198;19.646;2022-11-15T04:32:05;100237.15;;;6.01;74.43
70338;BME280;57757;53.198;19.646;2022-11-15T04:34:34;100232.65;;;6.02;74.66
70338;BME280;57757;53.198;19.646;2022-11-15T04:37:02;100237.48;;;6.02;74.76
70338;BME280;57757;53.198;19.646;2022-11-15T04:39:46;100244.39;;;6.05;74.82
70338;BME280;57757;53.198;19.646;2022-11-15T04:42:13;100242.65;;;6.06;74.73
70338;BME280;57757;53.198;19.646;2022-11-15T04:44:41;100237.30;;;6.07;74.70
70338;BME280;57757;53.198;19.646;2022-11-15T04:47:09;100239.52;;;6.10;74.88
70338;BME280;57757;53.198;19.646;2022-11-15T04:49:36;100243.83;;;6.13;74.90
70338;BME280;57757;53.198;19.646;2022-11-15T04:52:04;100242.44;;;6.15;74.92
70338;BME280;57757;53.198;19.646;2022-11-15T04:54:32;100245.38;;;6.14;74.79
70338;BME280;57757;53.198;19.646;2022-11-15T04:56:59;100237.77;;;6.13;74.70
70338;BME280;57757;53.198;19.646;2022-11-15T04:59:27;100234.84;;;6.13;74.64
70338;BME280;57757;53.198;19.646;2022-11-15T05:01:55;100238.48;;;6.11;74.56
70338;BME280;57757;53.198;19.646;2022-11-15T05:04:22;100238.17;;;6.03;74.47
70338;BME280;57757;53.198;19.646;2022-11-15T05:06:51;100234.74;;;5.98;74.57
70338;BME280;57757;53.198;19.646;2022-11-15T05:09:20;100226.48;;;5.92;74.67
70338;BME280;57757;53.198;19.646;2022-11-15T05:11:47;100221.15;;;5.93;74.75
70338;BME280;57757;53.198;19.646;2022-11-15T05:14:15;100220.08;;;5.95;74.93
70338;BME280;57757;53.198;19.646;2022-11-15T05:16:43;100219.39;;;5.96;74.95
70338;BME280;57757;53.198;19.646;2022-11-15T05:19:11;100212.65;;;5.98;74.89
70338;BME280;57757;53.198;19.646;2022-11-15T05:21:39;100203.66;;;5.99;74.98
70338;BME280;57757;53.198;19.646;2022-11-15T05:24:11;100197.45;;;6.00;75.11
70338;BME280;57757;53.198;19.646;2022-11-15T05:26:39;100191.56;;;6.03;75.18
70338;BME280;57757;53.198;19.646;2022-11-15T05:29:09;100190.01;;;6.06;75.10
70338;BME280;57757;53.198;19.646;2022-11-15T05:31:39;100186.38;;;6.05;74.78
70338;BME280;57757;53.198;19.646;2022-11-15T05:34:09;100186.04;;;6.03;74.81
70338;BME280;57757;53.198;19.646;2022-11-15T05:36:41;100184.17;;;5.99;74.81
70338;BME280;57757;53.198;19.646;2022-11-15T05:39:09;100180.90;;;5.97;75.09
70338;BME280;57757;53.198;19.646;2022-11-15T05:44:09;100178.46;;;6.00;75.07
70338;BME280;57757;53.198;19.646;2022-11-15T05:46:39;100178.28;;;6.03;75.14
70338;BME280;57757;53.198;19.646;2022-11-15T05:49:11;100175.14;;;6.08;75.18
70338;BME280;57757;53.198;19.646;2022-11-15T05:51:41;100178.44;;;6.09;75.03
70338;BME280;57757;53.198;19.646;2022-11-15T05:54:10;100186.88;;;6.07;74.98
70338;BME280;57757;53.198;19.646;2022-11-15T05:56:38;100197.27;;;6.05;75.12
70338;BME280;57757;53.198;19.646;2022-11-15T05:59:08;100192.60;;;6.05;75.09
70338;BME280;57757;53.198;19.646;2022-11-15T06:01:38;100193.45;;;6.07;75.13
70338;BME280;57757;53.198;19.646;2022-11-15T06:04:06;100199.30;;;6.11;75.30
70338;BME280;57757;53.198;19.646;2022-11-15T06:06:34;100194.62;;;6.16;75.33
70338;BME280;57757;53.198;19.646;2022-11-15T06:09:02;100192.52;;;6.17;75.37
70338;BME280;57757;53.198;19.646;2022-11-15T06:11:29;100197.19;;;6.17;75.29
70338;BME280;57757;53.198;19.646;2022-11-15T06:13:57;100202.05;;;6.13;75.05
70338;BME280;57757;53.198;19.646;2022-11-15T06:16:25;100210.54;;;6.08;74.74
70338;BME280;57757;53.198;19.646;2022-11-15T06:18:52;100213.34;;;5.99;74.67
70338;BME280;57757;53.198;19.646;2022-11-15T06:21:20;100214.22;;;5.95;74.82
70338;BME280;57757;53.198;19.646;2022-11-15T06:23:48;100214.73;;;5.95;75.02
70338;BME280;57757;53.198;19.646;2022-11-15T06:26:15;100217.66;;;5.95;75.07
70338;BME280;57757;53.198;19.646;2022-11-15T06:28:43;100219.59;;;5.94;74.99
70338;BME280;57757;53.198;19.646;2022-11-15T06:31:11;100223.20;;;5.92;74.88
70338;BME280;57757;53.198;19.646;2022-11-15T06:33:39;100220.10;;;5.92;75.07
70338;BME280;57757;53.198;19.646;2022-11-15T06:36:10;100221.98;;;5.97;75.11
70338;BME280;57757;53.198;19.646;2022-11-15T06:38:47;100225.23;;;6.03;75.21
70338;BME280;57757;53.198;19.646;2022-11-15T06:41:15;100225.73;;;6.06;75.16
70338;BME280;57757;53.198;19.646;2022-11-15T06:43:44;100229.00;;;6.09;75.29
70338;BME280;57757;53.198;19.646;2022-11-15T06:46:11;100235.22;;;6.10;75.27
70338;BME280;57757;53.198;19.646;2022-11-15T06:48:42;100233.48;;;6.12;75.27
70338;BME280;57757;53.198;19.646;2022-11-15T06:51:11;100233.48;;;6.13;75.13
70338;BME280;57757;53.198;19.646;2022-11-15T06:53:41;100231.92;;;6.13;75.15
70338;BME280;57757;53.198;19.646;2022-11-15T06:56:18;100235.70;;;6.16;75.19
70338;BME280;57757;53.198;19.646;2022-11-15T06:58:46;100232.95;;;6.16;75.19
70338;BME280;57757;53.198;19.646;2022-11-15T07:01:14;100232.59;;;6.17;75.29
70338;BME280;57757;53.198;19.646;2022-11-15T07:03:45;100230.52;;;6.15;75.06
70338;BME280;57757;53.198;19.646;2022-11-15T07:06:14;100236.08;;;6.12;75.03
70338;BME280;57757;53.198;19.646;2022-11-15T07:08:45;100229.68;;;6.10;75.05
70338;BME280;57757;53.198;19.646;2022-11-15T07:11:13;100228.14;;;6.10;75.05
70338;BME280;57757;53.198;19.646;2022-11-15T07:13:41;100222.42;;;6.10;74.98
70338;BME280;57757;53.198;19.646;2022-11-15T07:16:11;100221.39;;;6.12;75.06
70338;BME280;57757;53.198;19.646;2022-11-15T07:18:40;100218.95;;;6.14;75.17
70338;BME280;57757;53.198;19.646;2022-11-15T07:21:09;100219.64;;;6.16;75.23
70338;BME280;57757;53.198;19.646;2022-11-15T07:23:39;100213.92;;;6.18;75.21
70338;BME280;57757;53.198;19.646;2022-11-15T07:26:09;100212.37;;;6.19;75.13
70338;BME280;57757;53.198;19.646;2022-11-15T07:28:37;100208.56;;;6.22;75.36
70338;BME280;57757;53.198;19.646;2022-11-15T07:31:07;100205.41;;;6.29;75.38
70338;BME280;57757;53.198;19.646;2022-11-15T07:33:35;100205.73;;;6.35;75.31
70338;BME280;57757;53.198;19.646;2022-11-15T07:36:04;100206.23;;;6.38;75.30
70338;BME280;57757;53.198;19.646;2022-11-15T07:38:34;100203.09;;;6.42;75.43
70338;BME280;57757;53.198;19.646;2022-11-15T07:41:09;100200.80;;;6.47;75.33
70338;BME280;57757;53.198;19.646;2022-11-15T07:43:37;100202.33;;;6.52;75.49
70338;BME280;57757;53.198;19.646;2022-11-15T07:46:07;100200.25;;;6.53;75.38
70338;BME280;57757;53.198;19.646;2022-11-15T07:48:38;100204.94;;;6.51;75.08
70338;BME280;57757;53.198;19.646;2022-11-15T07:51:13;100207.89;;;6.48;74.93
70338;BME280;57757;53.198;19.646;2022-11-15T07:53:43;100196.50;;;6.46;74.99
70338;BME280;57757;53.198;19.646;2022-11-15T07:56:11;100199.27;;;6.45;75.25
70338;BME280;57757;53.198;19.646;2022-11-15T07:58:39;100198.05;;;6.45;75.10
70338;BME280;57757;53.198;19.646;2022-11-15T08:01:11;100196.16;;;6.45;75.24
70338;BME280;57757;53.198;19.646;2022-11-15T08:03:39;100193.23;;;6.43;75.09
70338;BME280;57757;53.198;19.646;2022-11-15T08:06:06;100194.13;;;6.37;74.85
70338;BME280;57757;53.198;19.646;2022-11-15T08:08:34;100190.36;;;6.35;74.97
70338;BME280;57757;53.198;19.646;2022-11-15T08:11:04;100189.32;;;6.36;75.07
70338;BME280;57757;53.198;19.646;2022-11-15T08:13:37;100185.02;;;6.32;74.93
70338;BME280;57757;53.198;19.646;2022-11-15T08:16:05;100182.60;;;6.32;75.19
70338;BME280;57757;53.198;19.646;2022-11-15T08:18:33;100183.27;;;6.33;75.23
70338;BME280;57757;53.198;19.646;2022-11-15T08:21:01;100182.77;;;6.35;75.44
70338;BME280;57757;53.198;19.646;2022-11-15T08:23:29;100180.31;;;6.39;75.37
70338;BME280;57757;53.198;19.646;2022-11-15T08:26:02;100178.21;;;6.43;75.51
70338;BME280;57757;53.198;19.646;2022-11-15T08:28:31;100178.67;;;6.49;75.47
70338;BME280;57757;53.198;19.646;2022-11-15T08:31:00;100179.84;;;6.56;75.40
70338;BME280;57757;53.198;19.646;2022-11-15T08:33:28;100178.25;;;6.61;75.32
70338;BME280;57757;53.198;19.646;2022-11-15T08:35:58;100178.95;;;6.61;75.24
70338;BME280;57757;53.198;19.646;2022-11-15T08:38:27;100179.28;;;6.63;75.58
70338;BME280;57757;53.198;19.646;2022-11-15T08:41:03;100180.65;;;6.64;75.24
70338;BME280;57757;53.198;19.646;2022-11-15T08:43:32;100187.06;;;6.61;75.18
70338;BME280;57757;53.198;19.646;2022-11-15T08:46:02;100189.31;;;6.62;75.01
70338;BME280;57757;53.198;19.646;2022-11-15T08:48:35;100190.70;;;6.59;75.09
70338;BME280;57757;53.198;19.646;2022-11-15T08:51:03;100188.51;;;6.53;74.70
70338;BME280;57757;53.198;19.646;2022-11-15T08:53:34;100189.96;;;6.43;74.51
70338;BME280;57757;53.198;19.646;2022-11-15T08:56:02;100190.87;;;6.36;74.42
70338;BME280;57757;53.198;19.646;2022-11-15T08:58:30;100188.08;;;6.39;74.64
70338;BME280;57757;53.198;19.646;2022-11-15T09:00:58;100185.63;;;6.45;75.13
70338;BME280;57757;53.198;19.646;2022-11-15T09:03:26;100180.90;;;6.53;75.18
70338;BME280;57757;53.198;19.646;2022-11-15T09:05:59;100175.34;;;6.58;75.28
70338;BME280;57757;53.198;19.646;2022-11-15T09:08:30;100169.08;;;6.62;75.39
70338;BME280;57757;53.198;19.646;2022-11-15T09:11:14;100165.41;;;6.68;75.19
70338;BME280;57757;53.198;19.646;2022-11-15T09:13:43;100165.39;;;6.71;75.14
70338;BME280;57757;53.198;19.646;2022-11-15T09:16:14;100163.45;;;6.74;75.39
70338;BME280;57757;53.198;19.646;2022-11-15T09:18:42;100157.36;;;6.79;75.28
70338;BME280;57757;53.198;19.646;2022-11-15T09:21:10;100158.55;;;6.83;75.25
70338;BME280;57757;53.198;19.646;2022-11-15T09:23:38;100160.08;;;6.86;75.42
70338;BME280;57757;53.198;19.646;2022-11-15T09:26:06;100158.98;;;6.90;75.52
70338;BME280;57757;53.198;19.646;2022-11-15T09:28:35;100156.57;;;6.91;75.11
70338;BME280;57757;53.198;19.646;2022-11-15T09:31:05;100150.15;;;6.93;75.26
70338;BME280;57757;53.198;19.646;2022-11-15T09:33:39;100150.80;;;6.99;75.41
70338;BME280;57757;53.198;19.646;2022-11-15T09:36:11;100149.71;;;7.04;75.53
70338;BME280;57757;53.198;19.646;2022-11-15T09:38:39;100147.26;;;7.07;75.41
70338;BME280;57757;53.198;19.646;2022-11-15T09:49:53;100148.48;;;7.06;75.36
70338;BME280;57757;53.198;19.646;2022-11-15T09:52:27;100150.90;;;7.05;75.21
70338;BME280;57757;53.198;19.646;2022-11-15T10:03:08;100136.52;;;7.08;75.45
70338;BME280;57757;53.198;19.646;2022-11-15T10:06:01;100128.23;;;7.07;75.07
70338;BME280;57757;53.198;19.646;2022-11-15T10:11:17;100128.23;;;7.07;75.23
70338;BME280;57757;53.198;19.646;2022-11-15T10:14:22;100121.63;;;7.10;75.11
70338;BME280;57757;53.198;19.646;2022-11-15T10:27:35;100111.42;;;7.11;75.02
70338;BME280;57757;53.198;19.646;2022-11-15T10:30:04;100107.85;;;7.04;74.77
70338;BME280;57757;53.198;19.646;2022-11-15T10:32:38;100111.90;;;6.99;74.98
70338;BME280;57757;53.198;19.646;2022-11-15T10:35:27;100107.58;;;6.98;75.19
70338;BME280;57757;53.198;19.646;2022-11-15T10:38:11;100109.51;;;6.96;75.11
70338;BME280;57757;53.198;19.646;2022-11-15T10:40:40;100112.95;;;6.97;75.32
70338;BME280;57757;53.198;19.646;2022-11-15T10:45:46;100105.83;;;7.01;75.10
70338;BME280;57757;53.198;19.646;2022-11-15T10:48:20;100101.98;;;7.03;75.14
70338;BME280;57757;53.198;19.646;2022-11-15T10:50:50;100101.24;;;7.09;75.31
70338;BME280;57757;53.198;19.646;2022-11-15T10:53:41;100095.63;;;7.17;75.30
70338;BME280;57757;53.198;19.646;2022-11-15T10:56:13;100091.41;;;7.21;75.14
70338;BME280;57757;53.198;19.646;2022-11-15T10:58:52;100090.50;;;7.26;75.22
70338;BME280;57757;53.198;19.646;2022-11-15T11:01:26;100086.11;;;7.32;75.15
70338;BME280;57757;53.198;19.646;2022-11-15T11:04:00;100086.56;;;7.38;75.35
70338;BME280;57757;53.198;19.646;2022-11-15T11:06:29;100082.16;;;7.44;75.16
70338;BME280;57757;53.198;19.646;2022-11-15T11:09:00;100077.73;;;7.52;75.26
70338;BME280;57757;53.198;19.646;2022-11-15T11:11:54;100072.95;;;7.60;75.28
70338;BME280;57757;53.198;19.646;2022-11-15T11:14:33;100071.77;;;7.70;75.36
70338;BME280;57757;53.198;19.646;2022-11-15T11:31:15;100063.73;;;7.77;74.78
70338;BME280;57757;53.198;19.646;2022-11-15T11:42:06;100051.56;;;7.80;74.59
70338;BME280;57757;53.198;19.646;2022-11-15T11:47:30;100049.42;;;7.73;74.66
70338;BME280;57757;53.198;19.646;2022-11-15T11:50:14;100049.61;;;7.70;74.62
70338;BME280;57757;53.198;19.646;2022-11-15T11:55:50;100040.89;;;7.63;74.42
70338;BME280;57757;53.198;19.646;2022-11-15T11:58:34;100036.07;;;7.62;74.49
70338;BME280;57757;53.198;19.646;2022-11-15T12:04:15;100038.33;;;7.60;74.62
70338;BME280;57757;53.198;19.646;2022-11-15T12:06:51;100041.80;;;7.59;74.59
70338;BME280;57757;53.198;19.646;2022-11-15T12:09:33;100039.09;;;7.56;74.55
70338;BME280;57757;53.198;19.646;2022-11-15T12:17:41;100037.48;;;7.48;74.59
70338;BME280;57757;53.198;19.646;2022-11-15T12:26:08;100029.83;;;7.50;74.77
70338;BME280;57757;53.198;19.646;2022-11-15T12:31:39;100022.06;;;7.61;75.23
70338;BME280;57757;53.198;19.646;2022-11-15T12:34:41;100017.13;;;7.67;75.28
70338;BME280;57757;53.198;19.646;2022-11-15T12:40:20;100011.00;;;7.72;75.13
70338;BME280;57757;53.198;19.646;2022-11-15T12:45:57;99999.52;;;7.76;75.05
70338;BME280;57757;53.198;19.646;2022-11-15T12:51:03;100003.93;;;7.82;75.02
70338;BME280;57757;53.198;19.646;2022-11-15T12:53:33;100003.39;;;7.82;75.14
70338;BME280;57757;53.198;19.646;2022-11-15T13:20:25;99996.65;;;7.93;74.94
70338;BME280;57757;53.198;19.646;2022-11-15T13:30:59;99995.51;;;7.89;74.84
70338;BME280;57757;53.198;19.646;2022-11-15T13:33:32;99988.09;;;7.87;74.71
70338;BME280;57757;53.198;19.646;2022-11-15T13:36:14;99989.63;;;7.88;74.71
70338;BME280;57757;53.198;19.646;2022-11-15T13:38:44;99990.48;;;7.90;74.74
70338;BME280;57757;53.198;19.646;2022-11-15T13:41:20;99988.20;;;7.90;74.92
70338;BME280;57757;53.198;19.646;2022-11-15T13:43:50;99984.56;;;7.90;74.86
70338;BME280;57757;53.198;19.646;2022-11-15T13:46:34;99984.91;;;7.91;74.96
70338;BME280;57757;53.198;19.646;2022-11-15T13:49:08;99981.13;;;7.90;74.90
70338;BME280;57757;53.198;19.646;2022-11-15T14:00:06;99987.75;;;7.86;74.90
70338;BME280;57757;53.198;19.646;2022-11-15T14:02:37;99989.30;;;7.87;74.77
70338;BME280;57757;53.198;19.646;2022-11-15T14:05:25;99989.67;;;7.86;74.70
70338;BME280;57757;53.198;19.646;2022-11-15T14:07:58;99988.83;;;7.84;74.70
70338;BME280;57757;53.198;19.646;2022-11-15T14:10:32;99985.55;;;7.84;74.68
70338;BME280;57757;53.198;19.646;2022-11-15T14:13:01;99983.86;;;7.81;74.53
70338;BME280;57757;53.198;19.646;2022-11-15T14:15:32;99982.70;;;7.78;74.53
70338;BME280;57757;53.198;19.646;2022-11-15T14:18:02;99972.50;;;7.77;74.56
70338;BME280;57757;53.198;19.646;2022-11-15T14:20:37;99970.09;;;7.77;74.61
70338;BME280;57757;53.198;19.646;2022-11-15T14:23:24;99970.39;;;7.79;74.67
70338;BME280;57757;53.198;19.646;2022-11-15T14:25:56;99969.70;;;7.78;74.62
70338;BME280;57757;53.198;19.646;2022-11-15T14:30:55;99967.70;;;7.74;74.87
70338;BME280;57757;53.198;19.646;2022-11-15T14:33:39;99965.99;;;7.72;74.76
70338;BME280;57757;53.198;19.646;2022-11-15T14:36:12;99961.17;;;7.70;74.84
70338;BME280;57757;53.198;19.646;2022-11-15T14:38:40;99958.96;;;7.67;74.71
70338;BME280;57757;53.198;19.646;2022-11-15T14:43:43;99953.30;;;7.64;74.76
70338;BME280;57757;53.198;19.646;2022-11-15T14:46:11;99956.77;;;7.64;74.70
70338;BME280;57757;53.198;19.646;2022-11-15T14:48:39;99955.53;;;7.66;74.86
70338;BME280;57757;53.198;19.646;2022-11-15T14:51:12;99958.66;;;7.66;74.88
70338;BME280;57757;53.198;19.646;2022-11-15T14:53:43;99955.05;;;7.63;74.79
70338;BME280;57757;53.198;19.646;2022-11-15T14:56:11;99955.78;;;7.61;74.69
70338;BME280;57757;53.198;19.646;2022-11-15T14:58:39;99951.33;;;7.58;74.62
70338;BME280;57757;53.198;19.646;2022-11-15T15:01:25;99950.14;;;7.56;74.64
70338;BME280;57757;53.198;19.646;2022-11-15T15:03:53;99950.70;;;7.54;74.78
70338;BME280;57757;53.198;19.646;2022-11-15T15:06:26;99945.39;;;7.50;74.57
70338;BME280;57757;53.198;19.646;2022-11-15T15:08:53;99943.16;;;7.48;74.66
70338;BME280;57757;53.198;19.646;2022-11-15T15:11:23;99944.37;;;7.49;74.67
70338;BME280;57757;53.198;19.646;2022-11-15T15:13:51;99941.95;;;7.48;74.74
70338;BME280;57757;53.198;19.646;2022-11-15T15:16:19;99949.91;;;7.48;74.67
70338;BME280;57757;53.198;19.646;2022-11-15T15:18:47;99950.81;;;7.47;74.70
70338;BME280;57757;53.198;19.646;2022-11-15T15:21:23;99954.80;;;7.45;74.74
70338;BME280;57757;53.198;19.646;2022-11-15T15:23:52;99958.14;;;7.42;74.78
70338;BME280;57757;53.198;19.646;2022-11-15T15:26:22;99958.66;;;7.41;74.63
70338;BME280;57757;53.198;19.646;2022-11-15T15:28:51;99955.38;;;7.41;74.67
70338;BME280;57757;53.198;19.646;2022-11-15T15:31:19;99957.45;;;7.40;74.56
70338;BME280;57757;53.198;19.646;2022-11-15T15:33:46;99953.81;;;7.41;74.74
70338;BME280;57757;53.198;19.646;2022-11-15T15:36:17;99948.27;;;7.42;74.67
70338;BME280;57757;53.198;19.646;2022-11-15T15:38:45;99949.49;;;7.40;74.57
70338;BME280;57757;53.198;19.646;2022-11-15T15:41:16;99953.83;;;7.41;74.70
70338;BME280;57757;53.198;19.646;2022-11-15T15:43:44;99957.66;;;7.39;74.57
70338;BME280;57757;53.198;19.646;2022-11-15T15:46:17;99954.21;;;7.38;74.64
70338;BME280;57757;53.198;19.646;2022-11-15T15:48:46;99951.28;;;7.37;74.64
70338;BME280;57757;53.198;19.646;2022-11-15T15:51:13;99952.17;;;7.36;74.51
70338;BME280;57757;53.198;19.646;2022-11-15T15:53:47;99948.39;;;7.34;74.47
70338;BME280;57757;53.198;19.646;2022-11-15T15:56:15;99951.88;;;7.32;74.45
70338;BME280;57757;53.198;19.646;2022-11-15T15:58:43;99944.12;;;7.30;74.39